Main page
METAR-TAF:

METAR-TAF

Airports :

Neuburg, Germany

Neuburg Air Base

latitude: 48-43N, longitude: 011-13E, elevation: 380 m

Current weather observation

The report was made 27 minutes ago, at 22:20 UTC
Wind 1 kt from the South/Southeast
Temperature 7°C
Humidity 76%
Pressure 1019 hPa
Visibility 10 km or more
Few clouds at a height of 6500 ft
Broken clouds at a height of 8000 ft

METAR: ETSN 262220Z 16001KT 9999 FEW065 BKN080 07/03 Q1019 BLU

Time: 00:47 (22:47 UTC)

Forecast

The report was made 47 minutes ago, at 22:00 UTC
Forecast valid from 26 at 23 UTC to 27 at 08 UTC
Wind 3 kt from variable directions
Visibility 10 km or more
Few clouds at a height of 6000 ft
Broken clouds at a height of 8000 ft

TAF: ETSN 262200Z 2623/2708 VRB03KT 9999 NSW FEW060 BKN080 BY ETGL

Weather observations and forecasts of more than 4000 airports (METAR and TAF reports).

The available stations are represented by yellow and red dots on the map.

Hover mouse over dot to see the name of the station.

Then click to see weather observations and forecasts.

To change the map : click on the green buttons with a black cross to zoom in, on the green button with a dash to zoom out, or on the green arrows for adjacent maps.


METAR-TAF: